Time;durP1;ratioP1;P1;durP2;ratioP2;P2;SDS_P1;SDS_P2;PMS_P1;PMS_P2;Temp;Humidity;BMP_temperature;BMP_pressure;BME280_temperature;BME280_humidity;BME280_pressure;Samples;Min_cycle;Max_cycle;Signal;HPM_P1;HPM_P2
2022/07/01 00:02:05;;;;;;;3.20;2.90;;;;;;;16.85;76.83;100437.19;10362090;28;20181;-84
2022/07/01 00:07:10;;;;;;;3.38;2.60;;;;;;;16.82;79.84;100423.75;10377612;28;20205;-84
2022/07/01 00:12:13;;;;;;;5.22;3.28;;;;;;;16.84;77.77;100414.94;10362366;28;20205;-85
2022/07/01 00:17:15;;;;;;;3.90;3.60;;;;;;;17.08;77.07;100408.63;10377916;28;20235;-85
2022/07/01 00:22:17;;;;;;;4.32;4.00;;;;;;;17.04;76.52;100402.00;10361201;28;20217;-84
2022/07/01 00:27:20;;;;;;;5.20;4.70;;;;;;;16.93;77.90;100407.22;10329805;28;20197;-84
2022/07/01 00:32:22;;;;;;;5.80;5.20;;;;;;;16.63;78.56;100410.06;10362196;28;20214;-85
2022/07/01 00:37:25;;;;;;;6.22;5.63;;;;;;;16.92;76.78;100402.75;10343878;28;20189;-82
2022/07/01 00:42:27;;;;;;;6.18;5.68;;;;;;;16.84;77.29;100421.41;10385419;28;20467;-87
2022/07/01 00:47:29;;;;;;;5.65;5.15;;;;;;;17.07;77.54;100418.25;10363134;28;20259;-84
2022/07/01 00:52:32;;;;;;;6.32;5.60;;;;;;;16.86;77.03;100421.88;10393530;28;20216;-87
2022/07/01 00:57:36;;;;;;;6.65;6.05;;;;;;;17.01;76.55;100423.28;10386589;28;20185;-83
2022/07/01 01:02:38;;;;;;;6.35;5.75;;;;;;;17.05;75.86;100421.44;10413100;28;20185;-85
2022/07/01 01:07:41;;;;;;;9.60;7.25;;;;;;;17.05;76.49;100420.59;10386616;28;20243;-86
2022/07/01 01:12:43;;;;;;;8.80;8.10;;;;;;;17.17;74.82;100429.13;10403178;28;20217;-86
2022/07/01 01:17:48;;;;;;;8.98;8.15;;;;;;;16.77;75.80;100435.22;10403530;28;20189;-86
2022/07/01 01:22:51;;;;;;;12.65;9.85;;;;;;;16.76;76.38;100444.88;10402518;28;20216;-86
2022/07/01 01:27:53;;;;;;;10.90;9.90;;;;;;;16.88;76.01;100439.31;10383553;28;20258;-86
2022/07/01 01:32:56;;;;;;;11.57;10.38;;;;;;;16.84;77.09;100468.59;10398441;28;20302;-87
2022/07/01 01:37:58;;;;;;;11.95;10.75;;;;;;;16.80;75.78;100468.44;10365646;28;20578;-87
2022/07/01 01:43:00;;;;;;;13.30;12.00;;;;;;;16.53;77.42;100478.22;10391159;28;20288;-87
2022/07/01 01:48:03;;;;;;;12.68;11.38;;;;;;;16.52;76.19;100473.72;10374345;28;20185;-86
2022/07/01 01:53:05;;;;;;;14.27;12.38;;;;;;;16.72;76.21;100469.31;10340246;28;20263;-87
2022/07/01 01:58:07;;;;;;;12.20;10.65;;;;;;;16.85;74.93;100473.06;10356712;28;20243;-85
2022/07/01 02:03:10;;;;;;;13.02;10.77;;;;;;;16.71;76.44;100484.63;10375359;28;20193;-87
2022/07/01 02:08:12;;;;;;;13.80;12.00;;;;;;;16.55;77.46;100480.69;10363246;28;20256;-86
2022/07/01 02:13:14;;;;;;;13.07;11.38;;;;;;;16.60;75.97;100492.59;10362582;28;20267;-85
2022/07/01 02:18:17;;;;;;;13.00;11.30;;;;;;;16.61;75.46;100502.75;10363422;28;20470;-86
2022/07/01 02:23:19;;;;;;;13.70;11.07;;;;;;;16.58;75.32;100517.56;10362957;28;20218;-86
2022/07/01 02:28:21;;;;;;;13.40;10.32;;;;;;;16.51;75.32;100502.28;10346197;28;20667;-86
2022/07/01 02:33:24;;;;;;;11.52;9.65;;;;;;;16.25;76.55;100491.88;10346120;28;20271;-88
2022/07/01 02:38:27;;;;;;;10.85;9.75;;;;;;;16.37;75.70;100507.28;10362051;28;20541;-88
2022/07/01 02:43:29;;;;;;;11.20;9.07;;;;;;;16.25;75.70;100517.28;10345456;28;20197;-87
2022/07/01 02:48:31;;;;;;;11.50;8.70;;;;;;;16.30;76.37;100535.19;10345449;28;20510;-85
2022/07/01 02:53:34;;;;;;;8.93;8.03;;;;;;;16.06;77.29;100536.59;10365268;28;20221;-84
2022/07/01 02:58:36;;;;;;;11.80;7.15;;;;;;;16.03;76.66;100528.78;10326182;28;20241;-86
2022/07/01 03:03:39;;;;;;;9.75;6.95;;;;;;;16.06;75.80;100535.75;10329075;28;20833;-88
2022/07/01 03:08:41;;;;;;;8.40;5.60;;;;;;;16.14;74.33;100557.47;10356056;28;20239;-87
2022/07/01 03:13:44;;;;;;;6.88;5.13;;;;;;;15.91;75.10;100563.31;10352884;28;20287;-83
2022/07/01 03:18:46;;;;;;;8.65;4.60;;;;;;;16.00;74.86;100582.19;10371002;28;20185;-83
2022/07/01 03:23:49;;;;;;;7.73;4.83;;;;;;;15.84;75.20;100590.31;10369975;28;20217;-81
2022/07/01 03:28:51;;;;;;;7.03;4.57;;;;;;;15.90;74.92;100595.50;10370443;28;20212;-81
2022/07/01 03:33:53;;;;;;;5.07;3.93;;;;;;;15.85;75.30;100611.72;10352375;28;20213;-81
2022/07/01 03:38:55;;;;;;;7.75;3.80;;;;;;;15.88;75.07;100603.44;10369810;28;20483;-81
2022/07/01 03:43:58;;;;;;;6.33;4.03;;;;;;;16.14;74.33;100600.63;10369434;28;20202;-84
2022/07/01 03:49:01;;;;;;;5.18;3.30;;;;;;;15.92;73.75;100603.63;10353778;28;20236;-84
2022/07/01 03:59:25;;;;;;;6.63;3.57;;;;;;;16.27;73.11;100591.13;10356207;28;20185;-81
2022/07/01 04:04:28;;;;;;;6.70;4.20;;;;;;;15.95;74.29;100574.75;10360591;28;20514;-82
2022/07/01 04:09:30;;;;;;;8.98;4.40;;;;;;;16.20;73.63;100564.59;10369328;28;20634;-84
2022/07/01 04:14:33;;;;;;;5.53;4.27;;;;;;;15.96;74.58;100576.38;10335185;28;20247;-82
2022/07/01 04:19:35;;;;;;;7.05;4.65;;;;;;;15.99;74.57;100577.72;10370289;28;20521;-82
2022/07/01 04:24:38;;;;;;;10.77;5.00;;;;;;;15.89;75.02;100570.44;10369282;28;20610;-82
2022/07/01 04:29:41;;;;;;;8.37;4.70;;;;;;;15.95;75.49;100557.84;10358970;28;20228;-82
2022/07/01 04:34:43;;;;;;;6.57;4.82;;;;;;;16.25;74.28;100559.59;10361266;28;20294;-82
2022/07/01 04:39:46;;;;;;;6.88;4.50;;;;;;;16.18;74.53;100564.94;10360317;28;20189;-83
2022/07/01 04:44:48;;;;;;;8.17;4.97;;;;;;;16.27;74.04;100581.84;10359427;28;20225;-82
2022/07/01 04:49:52;;;;;;;6.88;4.70;;;;;;;16.11;74.75;100595.63;10359817;28;20182;-83
2022/07/01 04:54:54;;;;;;;5.77;4.80;;;;;;;15.94;75.31;100589.19;10359108;28;20244;-83
2022/07/01 05:00:08;;;;;;;8.48;5.00;;;;;;;16.06;74.96;100578.91;10351869;28;20224;-87
2022/07/01 05:05:11;;;;;;;8.17;4.90;;;;;;;15.96;75.25;100582.03;10343304;28;20221;-87
2022/07/01 05:10:13;;;;;;;7.47;4.65;;;;;;;16.14;74.27;100594.16;10396825;28;20193;-85
2022/07/01 05:15:16;;;;;;;7.40;4.50;;;;;;;15.73;76.60;100589.00;10376923;28;20197;-87
2022/07/01 05:25:39;;;;;;;5.23;4.23;;;;;;;16.02;74.78;100580.72;10355593;28;20268;-88
2022/07/01 05:30:42;;;;;;;8.35;4.70;;;;;;;16.65;72.84;100570.66;10352897;28;20217;-87
2022/07/01 05:35:44;;;;;;;9.02;5.05;;;;;;;16.23;73.75;100563.91;10375421;28;20193;-88
2022/07/01 05:40:47;;;;;;;10.20;4.43;;;;;;;16.53;74.46;100562.06;10374199;28;20201;-84
2022/07/01 05:45:49;;;;;;;6.00;4.22;;;;;;;16.63;74.34;100556.03;10362661;28;20251;-86
2022/07/01 05:50:52;;;;;;;9.13;4.72;;;;;;;16.62;73.45;100565.69;10361633;28;20245;-88
2022/07/01 05:55:54;;;;;;;7.25;4.80;;;;;;;16.68;73.03;100578.47;10358664;28;20229;-87
2022/07/01 06:00:57;;;;;;;5.95;4.53;;;;;;;16.72;73.42;100573.81;10359674;28;20197;-86
2022/07/01 06:06:10;;;;;;;6.22;4.80;;;;;;;16.78;72.23;100583.72;10368712;28;20314;-85
2022/07/01 06:11:12;;;;;;;6.90;4.38;;;;;;;16.66;73.56;100597.72;10347179;28;20209;-88
2022/07/01 06:16:14;;;;;;;7.43;4.85;;;;;;;16.15;74.23;100622.03;10380212;28;20202;-88
2022/07/01 06:21:17;;;;;;;6.57;5.10;;;;;;;16.35;73.92;100628.97;10328457;28;20271;-85
2022/07/01 06:26:19;;;;;;;8.05;4.72;;;;;;;16.65;73.07;100632.78;10387170;28;20235;-86
2022/07/01 06:31:23;;;;;;;7.78;7.00;;;;;;;16.33;72.72;100641.78;10370673;28;20244;-82
2022/07/01 06:36:26;;;;;;;8.75;7.63;;;;;;;16.45;72.37;100633.47;10371297;28;20271;-85
2022/07/01 06:41:28;;;;;;;10.75;7.63;;;;;;;16.24;73.62;100631.31;10358626;28;20547;-91
2022/07/01 06:46:31;;;;;;;7.27;6.57;;;;;;;16.88;72.50;100656.78;10355702;28;20201;-91
2022/07/01 06:51:34;;;;;;;9.10;6.88;;;;;;;16.71;72.49;100654.03;10395155;28;20208;-90
2022/07/01 06:56:36;;;;;;;8.03;7.23;;;;;;;16.69;70.80;100655.53;10358243;28;20194;-87
2022/07/01 07:01:39;;;;;;;10.52;7.70;;;;;;;16.57;70.93;100667.50;10366663;28;22040;-89
2022/07/01 07:06:41;;;;;;;11.18;7.03;;;;;;;17.02;69.65;100638.78;10366993;28;20263;-82
2022/07/01 07:11:43;;;;;;;9.95;6.43;;;;;;;17.06;69.42;100648.25;10374046;28;20257;-92
2022/07/01 07:16:45;;;;;;;7.60;4.68;;;;;;;16.63;70.65;100668.97;10358420;28;20205;-89
2022/07/01 07:21:48;;;;;;;6.80;4.68;;;;;;;16.99;68.16;100688.34;10365586;28;20270;-90
2022/07/01 07:26:51;;;;;;;5.20;4.00;;;;;;;17.20;68.58;100665.84;10374636;28;20189;-91
2022/07/01 07:31:54;;;;;;;6.85;3.42;;;;;;;17.42;67.26;100661.94;10378443;28;20209;-85
2022/07/01 07:36:56;;;;;;;4.65;2.65;;;;;;;17.45;67.50;100662.09;10371118;28;20235;-88
2022/07/01 07:41:59;;;;;;;4.82;3.25;;;;;;;17.32;65.78;100669.59;10350439;28;20185;-87
2022/07/01 07:47:01;;;;;;;3.97;3.05;;;;;;;17.18;65.46;100673.81;10351072;28;21012;-85
2022/07/01 07:52:05;;;;;;;4.22;1.98;;;;;;;17.19;66.01;100669.81;10381911;28;20286;-82
2022/07/01 07:57:08;;;;;;;4.75;1.77;;;;;;;17.65;64.45;100671.78;10346000;28;20248;-81
2022/07/01 08:02:12;;;;;;;5.75;1.83;;;;;;;18.09;62.73;100669.50;10374633;28;20205;-90
2022/07/01 08:07:14;;;;;;;3.42;1.90;;;;;;;18.24;62.55;100677.41;10389212;28;20217;-88
2022/07/01 08:12:17;;;;;;;5.35;4.00;;;;;;;17.71;65.29;100697.88;10370414;28;20237;-86
2022/07/01 08:17:19;;;;;;;4.50;2.47;;;;;;;18.46;62.50;100684.69;10377263;28;20248;-86
2022/07/01 08:22:22;;;;;;;4.15;2.33;;;;;;;18.34;61.51;100689.13;10360478;28;20229;-86
2022/07/01 08:27:24;;;;;;;2.97;2.42;;;;;;;18.44;61.19;100681.38;10359836;28;20189;-89
2022/07/01 08:32:28;;;;;;;4.45;4.05;;;;;;;18.21;60.61;100690.22;10359996;28;20696;-89
2022/07/01 08:37:31;;;;;;;4.25;3.75;;;;;;;18.27;57.93;100716.34;10365079;28;20198;-87
2022/07/01 08:42:33;;;;;;;7.00;4.40;;;;;;;18.09;59.30;100732.59;10359522;28;20502;-85
2022/07/01 08:47:50;;;;;;;4.35;3.47;;;;;;;17.97;61.00;100729.66;10376290;28;20261;-84
2022/07/01 08:52:52;;;;;;;6.40;2.95;;;;;;;17.83;60.68;100724.25;10358720;28;20306;-84
2022/07/01 08:57:55;;;;;;;5.70;2.47;;;;;;;18.14;60.00;100751.38;10358448;28;20189;-86
2022/07/01 09:03:02;;;;;;;4.50;1.80;;;;;;;17.88;60.68;100760.03;10358520;28;20193;-84
2022/07/01 09:08:06;;;;;;;4.30;1.97;;;;;;;18.10;59.79;100762.53;10325656;28;20217;-85
2022/07/01 09:13:11;;;;;;;4.57;3.08;;;;;;;18.21;59.50;100763.84;10373693;28;20287;-86
2022/07/01 09:18:16;;;;;;;3.47;2.03;;;;;;;18.99;55.86;100761.22;10358087;28;20247;-85
2022/07/01 09:23:19;;;;;;;3.70;1.90;;;;;;;19.03;54.01;100750.84;10389712;28;20275;-85
2022/07/01 09:28:23;;;;;;;4.00;2.05;;;;;;;18.70;54.92;100732.94;10374191;28;20193;-84
2022/07/01 09:33:28;;;;;;;4.55;1.90;;;;;;;18.72;55.93;100727.78;10373719;28;20210;-85
2022/07/01 09:38:31;;;;;;;4.45;2.22;;;;;;;18.74;54.97;100729.09;10357716;28;20235;-85
2022/07/01 09:43:35;;;;;;;3.50;1.85;;;;;;;19.07;54.69;100734.78;10356773;28;20205;-83
2022/07/01 09:48:37;;;;;;;2.83;2.50;;;;;;;19.08;53.83;100730.75;10357157;28;20259;-86
2022/07/01 09:53:40;;;;;;;3.67;2.58;;;;;;;18.97;55.06;100732.34;10373555;28;20407;-83
2022/07/01 09:58:43;;;;;;;4.60;3.95;;;;;;;19.26;54.68;100724.91;10356173;28;20196;-84
2022/07/01 10:03:45;;;;;;;2.30;2.10;;;;;;;19.45;53.10;100717.50;10356000;28;20606;-83
2022/07/01 10:09:14;;;;;;;4.80;2.10;;;;;;;19.20;54.18;100720.66;10356279;28;20228;-85
2022/07/01 10:14:17;;;;;;;2.90;1.50;;;;;;;18.95;55.36;100743.19;10338883;28;20256;-85
2022/07/01 10:19:19;;;;;;;1.77;1.67;;;;;;;18.87;56.28;100743.28;10378474;28;20189;-84
2022/07/01 10:24:23;;;;;;;3.25;1.63;;;;;;;19.28;55.22;100745.22;10366429;28;20463;-84
2022/07/01 10:29:32;;;;;;;2.58;1.20;;;;;;;19.88;52.89;100746.50;10371784;28;20197;-84
2022/07/01 10:34:40;;;;;;;1.50;0.90;;;;;;;19.60;51.31;100744.31;10372998;28;20220;-86
2022/07/01 10:40:00;;;;;;;3.20;1.08;;;;;;;19.98;51.89;100746.03;10338881;28;20223;-83
2022/07/01 10:45:04;;;;;;;2.80;1.10;;;;;;;20.28;51.28;100738.88;10354418;28;20243;-85
2022/07/01 10:50:12;;;;;;;7.45;3.28;;;;;;;20.49;50.63;100738.75;10353879;28;20494;-83
2022/07/01 10:55:15;;;;;;;2.47;1.00;;;;;;;20.43;48.95;100746.66;10370121;28;20591;-83
2022/07/01 11:00:20;;;;;;;3.05;0.90;;;;;;;20.50;48.43;100740.38;10312754;28;20198;-83
2022/07/01 11:05:22;;;;;;;2.95;1.10;;;;;;;19.96;49.04;100734.22;10339557;28;20263;-85
2022/07/01 11:10:25;;;;;;;4.53;0.90;;;;;;;20.43;47.75;100734.47;10360157;28;20610;-84
2022/07/01 11:15:31;;;;;;;1.42;0.40;;;;;;;20.67;46.37;100737.28;10352832;28;20217;-86
2022/07/01 11:20:34;;;;;;;1.95;0.63;;;;;;;20.86;44.55;100736.63;10369283;28;20271;-84
2022/07/01 11:25:36;;;;;;;3.45;0.50;;;;;;;20.87;42.37;100726.91;10352937;28;20251;-86
2022/07/01 11:30:39;;;;;;;2.05;0.60;;;;;;;21.14;42.22;100730.91;10336002;28;20533;-83
2022/07/01 11:41:06;;;;;;;1.00;0.50;;;;;;;22.11;39.93;100712.28;10376274;28;20222;-84
2022/07/01 11:46:08;;;;;;;1.98;0.30;;;;;;;22.08;39.92;100711.00;10392473;28;20584;-85
2022/07/01 11:51:14;;;;;;;2.17;0.35;;;;;;;22.05;39.55;100708.91;10375715;28;20224;-86
2022/07/01 11:56:41;;;;;;;1.08;0.20;;;;;;;22.03;38.58;100699.09;10351884;28;20248;-86
2022/07/01 12:01:51;;;;;;;0.60;0.20;;;;;;;21.20;36.78;100716.03;10360247;28;20232;-84
2022/07/01 12:06:54;;;;;;;1.80;0.20;;;;;;;21.65;39.27;100717.66;10342590;28;20240;-83
2022/07/01 12:11:56;;;;;;;1.40;0.10;;;;;;;21.78;40.12;100722.06;10372950;28;20271;-81
2022/07/01 12:17:01;;;;;;;0.73;0.20;;;;;;;22.22;39.39;100728.44;10379233;28;20251;-82
2022/07/01 12:22:06;;;;;;;0.93;0.32;;;;;;;22.25;37.03;100724.84;10358417;28;20651;-85
2022/07/01 12:27:09;;;;;;;1.65;0.40;;;;;;;22.27;37.22;100715.94;10391314;28;20285;-80
2022/07/01 12:32:13;;;;;;;1.48;0.40;;;;;;;22.14;36.10;100714.41;10374079;28;20824;-81
2022/07/01 12:37:26;;;;;;;2.05;0.40;;;;;;;22.10;36.65;100719.19;10373072;28;20197;-84
2022/07/01 12:42:31;;;;;;;1.58;0.20;;;;;;;21.34;37.79;100720.50;10374601;28;20244;-85
2022/07/01 12:47:38;;;;;;;4.25;0.45;;;;;;;22.11;37.28;100715.13;10330773;28;20263;-81
2022/07/01 12:52:42;;;;;;;2.65;0.20;;;;;;;22.48;36.05;100710.69;10354016;28;20263;-81
2022/07/01 12:57:50;;;;;;;6.95;0.90;;;;;;;22.45;39.04;100722.84;10335900;28;20251;-82
2022/07/01 13:02:56;;;;;;;3.70;0.30;;;;;;;22.95;38.12;100712.53;10357389;28;20232;-84
2022/07/01 13:07:59;;;;;;;0.80;0.45;;;;;;;22.19;36.96;100703.53;10376082;28;20221;-84
2022/07/01 13:13:02;;;;;;;0.82;0.40;;;;;;;21.97;38.60;100717.66;10375742;28;20201;-82
2022/07/01 13:18:05;;;;;;;0.75;0.30;;;;;;;22.51;37.15;100704.25;10371668;28;20590;-85
2022/07/01 13:23:08;;;;;;;1.05;0.40;;;;;;;22.39;39.34;100706.41;10365991;28;20221;-83
2022/07/01 13:28:10;;;;;;;0.68;0.22;;;;;;;22.96;37.75;100717.03;10347749;28;20278;-83
2022/07/01 13:33:13;;;;;;;1.45;0.40;;;;;;;22.33;36.27;100717.28;10351992;28;20629;-82
2022/07/01 13:38:15;;;;;;;2.72;0.20;;;;;;;22.06;37.67;100721.94;10357561;28;20224;-81
2022/07/01 13:43:19;;;;;;;2.38;0.50;;;;;;;22.33;36.99;100713.59;10354830;28;20197;-82
2022/07/01 13:48:21;;;;;;;1.75;0.40;;;;;;;23.03;36.66;100716.34;10355594;28;20336;-83
2022/07/01 13:53:24;;;;;;;1.70;0.50;;;;;;;22.05;37.13;100725.19;10347278;28;20303;-84
2022/07/01 13:58:26;;;;;;;1.42;0.30;;;;;;;21.92;37.25;100711.03;10351033;28;20201;-82
2022/07/01 14:03:28;;;;;;;2.10;0.35;;;;;;;22.49;36.26;100732.28;10387560;28;20256;-83
2022/07/01 14:08:31;;;;;;;2.05;0.30;;;;;;;21.78;35.67;100733.44;10352607;28;20278;-82
2022/07/01 14:13:35;;;;;;;2.30;0.40;;;;;;;21.23;37.99;100747.84;10351734;28;20248;-84
2022/07/01 14:18:37;;;;;;;2.72;0.40;;;;;;;21.70;37.41;100737.28;10353733;28;20197;-83
2022/07/01 14:23:44;;;;;;;2.22;0.25;;;;;;;21.52;38.46;100753.09;10353858;28;20221;-82
2022/07/01 14:28:46;;;;;;;0.85;0.40;;;;;;;21.31;39.21;100755.34;10353393;28;20232;-84
2022/07/01 14:33:49;;;;;;;3.42;0.52;;;;;;;21.62;37.63;100760.25;10335330;28;20310;-82
2022/07/01 14:38:51;;;;;;;1.33;0.40;;;;;;;21.68;36.96;100751.06;10349853;28;20228;-86
2022/07/01 14:43:54;;;;;;;2.70;0.50;;;;;;;21.93;37.73;100752.53;10331790;28;20615;-83
2022/07/01 14:48:56;;;;;;;1.98;0.35;;;;;;;21.71;37.87;100753.19;10344868;28;20205;-83
2022/07/01 14:53:59;;;;;;;2.60;0.32;;;;;;;21.48;36.60;100766.41;10354644;28;20505;-84
2022/07/01 14:59:01;;;;;;;2.10;0.30;;;;;;;22.13;35.94;100767.69;10352003;28;20201;-85
2022/07/01 15:04:11;;;;;;;1.45;0.70;;;;;;;22.55;34.51;100758.50;10352813;28;20213;-87
2022/07/01 15:09:13;;;;;;;2.35;0.30;;;;;;;22.77;33.26;100756.94;10348792;28;20260;-86
2022/07/01 15:14:15;;;;;;;1.58;0.22;;;;;;;22.10;35.99;100770.44;10377991;28;20476;-83
2022/07/01 15:19:18;;;;;;;2.33;0.40;;;;;;;22.21;36.29;100769.50;10370815;28;20201;-85
2022/07/01 15:24:21;;;;;;;1.38;0.20;;;;;;;22.29;36.25;100764.81;10338488;28;20272;-86
2022/07/01 15:29:23;;;;;;;1.98;0.30;;;;;;;23.18;35.05;100761.06;10319911;28;21847;-85
2022/07/01 15:34:27;;;;;;;1.75;0.20;;;;;;;23.31;33.75;100771.97;10332372;28;20276;-88
2022/07/01 15:39:29;;;;;;;2.25;0.20;;;;;;;22.85;34.28;100770.16;10322464;28;20206;-83
2022/07/01 15:44:33;;;;;;;1.88;0.50;;;;;;;22.73;33.26;100776.00;10319121;28;20229;-85
2022/07/01 15:49:35;;;;;;;1.85;0.57;;;;;;;22.67;33.68;100778.34;10316921;28;20229;-82
2022/07/01 15:54:38;;;;;;;2.97;0.40;;;;;;;22.68;34.13;100782.00;10315782;28;20253;-82
2022/07/01 15:59:41;;;;;;;2.20;0.40;;;;;;;22.12;36.10;100793.69;10316991;28;20599;-86
2022/07/01 16:04:48;;;;;;;3.60;0.50;;;;;;;22.73;36.02;100784.56;10320860;28;20241;-83
2022/07/01 16:10:05;;;;;;;50.38;35.67;;;;;;;22.48;36.73;100784.78;10323748;28;20202;-82
2022/07/01 16:15:09;;;;;;;3.10;0.40;;;;;;;22.06;37.02;100781.75;10322772;28;20244;-77
2022/07/01 16:20:12;;;;;;;3.13;0.30;;;;;;;22.41;36.67;100784.63;10321946;28;20292;-78
2022/07/01 16:25:18;;;;;;;10.15;3.67;;;;;;;22.07;35.52;100793.97;10343722;28;20257;-77
2022/07/01 16:30:21;;;;;;;5.07;3.10;;;;;;;21.62;35.41;100803.78;10356624;28;20221;-79
2022/07/01 16:35:24;;;;;;;4.87;1.20;;;;;;;22.05;36.36;100800.06;10332921;28;20480;-73
2022/07/01 16:40:28;;;;;;;1.35;0.30;;;;;;;22.19;35.64;100793.84;10333475;28;20316;-87
2022/07/01 16:45:37;;;;;;;0.28;0.20;;;;;;;21.65;38.18;100805.06;10333020;28;20221;-81
2022/07/01 16:50:53;;;;;;;3.42;0.43;;;;;;;21.70;36.58;100797.06;10342610;28;20323;-85
2022/07/01 16:55:55;;;;;;;1.25;0.30;;;;;;;21.42;35.91;100799.97;10335174;28;20303;-86
2022/07/01 17:00:59;;;;;;;2.33;0.50;;;;;;;21.79;35.60;100803.44;10330234;28;20210;-81
2022/07/01 17:06:05;;;;;;;1.60;0.40;;;;;;;21.83;35.82;100806.34;10329608;28;20252;-81
2022/07/01 17:11:21;;;;;;;2.00;0.40;;;;;;;21.87;35.70;100804.44;10353741;28;20268;-81
2022/07/01 17:16:23;;;;;;;2.97;0.30;;;;;;;21.67;36.55;100816.91;10313500;28;20268;-84
2022/07/01 17:21:37;;;;;;;2.40;0.30;;;;;;;21.62;36.78;100820.03;10334863;28;20248;-89
2022/07/01 17:26:48;;;;;;;1.27;0.50;;;;;;;21.35;36.72;100816.03;10366479;28;20575;-80
2022/07/01 17:31:57;;;;;;;1.58;0.40;;;;;;;21.90;36.81;100815.91;10349664;28;20229;-88
2022/07/01 17:37:01;;;;;;;2.38;0.80;;;;;;;22.03;36.23;100813.84;10370945;28;20221;-86
2022/07/01 17:42:04;;;;;;;2.10;0.40;;;;;;;21.98;36.13;100828.34;10368238;28;20561;-90
2022/07/01 17:47:09;;;;;;;1.83;0.55;;;;;;;21.64;37.35;100834.72;10390107;28;20537;-85
2022/07/01 17:52:12;;;;;;;1.77;0.43;;;;;;;21.52;38.09;100841.31;10368638;28;20274;-83
2022/07/01 17:57:15;;;;;;;1.65;0.60;;;;;;;21.56;36.58;100837.34;10369908;28;20252;-81
2022/07/01 18:02:17;;;;;;;1.45;0.45;;;;;;;21.18;37.54;100839.88;10360560;28;20255;-83
2022/07/01 18:07:20;;;;;;;1.10;0.30;;;;;;;21.06;38.49;100849.28;10332049;28;20574;-84
2022/07/01 18:12:36;;;;;;;2.58;0.30;;;;;;;21.22;36.89;100852.22;10367985;28;20224;-87
2022/07/01 18:17:53;;;;;;;1.65;0.50;;;;;;;21.46;36.74;100851.28;10377012;28;20248;-82
2022/07/01 18:23:08;;;;;;;2.05;0.68;;;;;;;21.32;37.81;100856.56;10351345;28;20514;-81
2022/07/01 18:28:13;;;;;;;1.17;0.50;;;;;;;21.40;37.54;100852.75;10391799;28;20296;-82
2022/07/01 18:33:18;;;;;;;1.33;0.30;;;;;;;21.31;37.29;100854.91;10341256;28;20621;-87
2022/07/01 18:38:25;;;;;;;3.75;0.45;;;;;;;21.46;37.24;100859.81;10345400;28;20240;-83
2022/07/01 18:43:28;;;;;;;2.00;0.50;;;;;;;21.52;37.00;100856.38;10368696;28;20274;-82
2022/07/01 18:48:30;;;;;;;1.40;0.68;;;;;;;21.26;37.46;100867.41;10369929;28;20229;-88
2022/07/01 18:53:33;;;;;;;2.47;0.70;;;;;;;21.14;38.66;100873.09;10349117;28;20229;-83
2022/07/01 18:58:35;;;;;;;0.73;0.30;;;;;;;21.05;37.03;100870.38;10365870;28;20237;-82
2022/07/01 19:03:37;;;;;;;0.75;0.40;;;;;;;20.80;37.61;100880.16;10345850;28;20224;-80
2022/07/01 19:08:40;;;;;;;1.70;0.32;;;;;;;20.73;38.28;100891.31;10349577;28;20244;-81
2022/07/01 19:13:42;;;;;;;1.35;0.38;;;;;;;20.29;38.46;100902.44;10366019;28;20228;-80
2022/07/01 19:18:44;;;;;;;1.13;0.47;;;;;;;20.18;41.50;100909.75;10345028;28;20237;-80
2022/07/01 19:23:47;;;;;;;0.80;0.30;;;;;;;20.07;41.52;100919.91;10367305;28;20319;-80
2022/07/01 19:28:49;;;;;;;0.60;0.38;;;;;;;20.21;41.22;100923.25;10352943;28;20229;-80
2022/07/01 19:33:52;;;;;;;4.13;0.88;;;;;;;19.73;44.16;100938.94;10354708;28;20232;-82
2022/07/01 19:38:54;;;;;;;2.55;0.60;;;;;;;20.29;41.43;100939.34;10349301;28;20229;-82
2022/07/01 19:43:58;;;;;;;1.35;0.40;;;;;;;20.21;42.24;100942.31;10353474;28;20610;-81
2022/07/01 19:49:06;;;;;;;2.17;0.50;;;;;;;19.84;43.36;100962.09;10365079;28;20283;-82
2022/07/01 19:54:08;;;;;;;2.92;0.50;;;;;;;19.45;44.63;100972.78;10331218;28;20302;-82
2022/07/01 19:59:13;;;;;;;1.55;0.70;;;;;;;19.19;44.83;100983.50;10358178;28;20667;-80
2022/07/01 20:04:15;;;;;;;3.80;0.77;;;;;;;19.63;44.24;100984.78;10371694;28;20299;-83
2022/07/01 20:09:18;;;;;;;2.88;0.80;;;;;;;19.58;44.72;100995.53;10374453;28;20279;-81
2022/07/01 20:14:20;;;;;;;2.28;0.70;;;;;;;19.44;46.02;101001.47;10379697;28;20306;-81
2022/07/01 20:19:22;;;;;;;1.63;0.50;;;;;;;19.27;46.85;101010.09;10381668;28;20189;-83
2022/07/01 20:24:25;;;;;;;1.80;0.55;;;;;;;19.17;47.30;101021.84;10382213;28;20228;-83
2022/07/01 20:29:27;;;;;;;1.33;0.70;;;;;;;19.17;47.63;101027.53;10373950;28;20201;-83
2022/07/01 20:34:30;;;;;;;3.28;0.57;;;;;;;18.99;47.39;101038.97;10396205;28;20209;-83
2022/07/01 20:39:33;;;;;;;3.03;0.70;;;;;;;18.94;48.59;101041.94;10347844;28;20213;-85
2022/07/01 20:44:35;;;;;;;3.22;1.15;;;;;;;18.71;49.34;101051.91;10382572;28;20239;-84
2022/07/01 20:49:38;;;;;;;1.67;0.90;;;;;;;18.60;49.94;101059.09;10371854;28;20189;-86
2022/07/01 20:54:40;;;;;;;2.03;0.70;;;;;;;18.52;50.84;101062.81;10379035;28;20244;-87
2022/07/01 20:59:43;;;;;;;2.25;1.20;;;;;;;18.47;51.27;101065.81;10380405;28;20194;-86
2022/07/01 21:04:49;;;;;;;3.08;1.02;;;;;;;18.43;51.95;101067.66;10382491;28;20248;-85
2022/07/01 21:09:52;;;;;;;4.50;1.25;;;;;;;18.35;51.99;101077.84;10368785;28;20739;-86
2022/07/01 21:14:54;;;;;;;3.72;1.45;;;;;;;18.34;52.38;101073.34;10366087;28;20259;-87
2022/07/01 21:19:56;;;;;;;2.63;1.20;;;;;;;18.14;53.62;101091.84;10381239;28;20463;-87
2022/07/01 21:24:58;;;;;;;1.73;1.20;;;;;;;18.10;52.63;101101.34;10381096;28;20213;-87
2022/07/01 21:30:01;;;;;;;3.97;1.27;;;;;;;18.20;53.09;101101.84;10391527;28;20197;-87
2022/07/01 21:35:04;;;;;;;6.05;1.50;;;;;;;18.09;53.86;101109.00;10383098;28;20212;-85
2022/07/01 21:40:07;;;;;;;3.65;1.27;;;;;;;17.95;54.08;101112.00;10348265;28;20244;-86
2022/07/01 21:45:10;;;;;;;4.10;1.30;;;;;;;18.04;54.02;101115.63;10381420;28;20186;-87
2022/07/01 21:50:12;;;;;;;2.70;1.10;;;;;;;17.47;56.73;101123.44;10359782;28;20197;-87
2022/07/01 21:55:16;;;;;;;3.80;1.35;;;;;;;17.52;56.45;101114.78;10338799;28;20676;-86
2022/07/01 22:00:21;;;;;;;3.35;1.48;;;;;;;17.54;57.46;101123.75;10365028;28;20189;-87
2022/07/01 22:10:46;;;;;;;2.70;1.45;;;;;;;17.23;58.46;101131.47;10370991;28;20260;-87
2022/07/01 22:15:48;;;;;;;4.63;1.25;;;;;;;17.40;57.97;101131.53;10363391;28;20263;-87
2022/07/01 22:20:51;;;;;;;3.77;1.00;;;;;;;17.56;57.07;101129.09;10363405;28;20185;-85
2022/07/01 22:25:54;;;;;;;5.10;1.35;;;;;;;17.22;58.88;101138.28;10379745;28;20259;-84
2022/07/01 22:30:57;;;;;;;3.97;1.38;;;;;;;17.35;57.68;101134.50;10362280;28;20185;-89
2022/07/01 22:36:00;;;;;;;2.72;1.42;;;;;;;17.44;56.52;101129.75;10378564;28;20205;-83
2022/07/01 22:41:03;;;;;;;6.00;2.10;;;;;;;17.21;57.90;101133.81;10361589;28;20283;-87
2022/07/01 22:46:21;;;;;;;2.05;1.00;;;;;;;17.40;56.16;101139.19;10361864;28;20521;-85
2022/07/01 22:51:52;;;;;;;1.38;0.82;;;;;;;17.08;57.18;101137.56;10360854;28;20224;-84
2022/07/01 22:56:56;;;;;;;0.88;0.80;;;;;;;17.25;57.28;101137.66;10345653;28;20263;-82
2022/07/01 23:02:00;;;;;;;4.60;1.10;;;;;;;17.18;55.98;101137.28;10361145;28;20189;-83
2022/07/01 23:07:10;;;;;;;3.75;1.13;;;;;;;16.97;56.76;101135.06;10361022;28;20228;-81
2022/07/01 23:12:18;;;;;;;2.97;1.13;;;;;;;16.97;57.37;101139.88;10343141;28;20197;-84
2022/07/01 23:17:21;;;;;;;2.75;0.73;;;;;;;16.98;57.49;101139.53;10338862;28;20213;-84
2022/07/01 23:22:24;;;;;;;2.73;0.87;;;;;;;16.78;59.69;101140.09;10377829;28;20244;-84
2022/07/01 23:27:27;;;;;;;2.85;1.00;;;;;;;16.94;57.80;101134.84;10376966;28;20190;-82
2022/07/01 23:32:30;;;;;;;3.83;1.23;;;;;;;16.85;57.73;101140.47;10359718;28;20613;-83
2022/07/01 23:37:32;;;;;;;1.65;0.93;;;;;;;16.84;57.71;101144.47;10360181;28;20271;-84